This is the latest recevied weather packets stored in our database for station/object OK2ILA-1. If no packets are shown the sender has not sent any weather packets the latest 10 day(s).
| Time | Temp. | Humidity | Pressure | Rain* | Wind** | Luminosity | Snow |
|---|---|---|---|---|---|---|---|
| 1777662277 | 14.44° C | 100% | 1026 hPa | 0 mm | - | - | - |
| 1777661556 | 15.56° C | 100% | 1025.8 hPa | 0 mm | - | - | - |
| 1777660835 | 16.11° C | 100% | 1025.8 hPa | 0 mm | - | - | - |
| 1777660115 | 16.67° C | 100% | 1025.7 hPa | 0 mm | - | - | - |
| 1777659394 | 17.22° C | 100% | 1025.5 hPa | 0 mm | - | - | - |
| 1777658673 | 17.22° C | 100% | 1025.4 hPa | 0 mm | - | - | - |
| 1777657952 | 17.78° C | 100% | 1025.3 hPa | 0 mm | - | - | - |
| 1777657232 | 18.33° C | 100% | 1025.3 hPa | 0 mm | - | - | - |
| 1777656511 | 18.33° C | 100% | 1025.2 hPa | 0 mm | - | - | - |
| 1777655790 | 18.89° C | 100% | 1025.2 hPa | 0 mm | - | - | - |
| 1777655070 | 18.89° C | 100% | 1025.3 hPa | 0 mm | - | - | - |
| 1777654349 | 19.44° C | 100% | 1025.3 hPa | 0 mm | - | - | - |
| 1777653628 | 19.44° C | 100% | 1025.3 hPa | 0 mm | - | - | - |
| 1777652908 | 19.44° C | 100% | 1025.3 hPa | 0 mm | - | - | - |
| 1777652187 | 20° C | 100% | 1025.4 hPa | 0 mm | - | - | - |
| 1777651467 | 20° C | 100% | 1025.4 hPa | 0 mm | - | - | - |
| 1777650746 | 19.44° C | 100% | 1025.5 hPa | 0 mm | - | - | - |
| 1777650025 | 20° C | 100% | 1025.6 hPa | 0 mm | - | - | - |
| 1777649304 | 20° C | 100% | 1025.7 hPa | 0 mm | - | - | - |
| 1777647863 | 20° C | 100% | 1025.8 hPa | 0 mm | - | - | - |
| 1777647143 | 20° C | 100% | 1026 hPa | 0 mm | - | - | - |
| 1777646422 | 20° C | 100% | 1026.1 hPa | 0 mm | - | - | - |
| 1777645701 | 19.44° C | 100% | 1026.3 hPa | 0 mm | - | - | - |
| 1777644981 | 19.44° C | 100% | 1026.3 hPa | 0 mm | - | - | - |
| 1777644260 | 19.44° C | 100% | 1026.4 hPa | 0 mm | - | - | - |
* Rain latest hour (hover to see other rain measurements)
** Current wind speed in m/s (hover to see current wind gust speed)